createdAt,value
2018-10-09T00:02:00.981Z,73.18
2018-10-09T00:04:35.520Z,73.26
2018-10-09T00:07:10.038Z,73.51
2018-10-09T00:09:44.712Z,73.61
2018-10-09T00:12:19.303Z,73.25
2018-10-09T00:14:53.719Z,72.96
2018-10-09T00:17:28.212Z,73.24
2018-10-09T00:20:02.838Z,73.16
2018-10-09T00:22:37.495Z,73.27
2018-10-09T00:25:12.282Z,73.44
2018-10-09T00:27:46.788Z,73.45
2018-10-09T00:30:21.377Z,73.70
2018-10-09T00:32:56.387Z,73.62
2018-10-09T00:35:31.192Z,73.64
2018-10-09T00:38:06.036Z,73.87
2018-10-09T00:40:40.928Z,74.09
2018-10-09T00:43:15.713Z,74.83
2018-10-09T00:45:50.784Z,75.11
2018-10-09T00:48:25.265Z,74.63
2018-10-09T00:50:59.759Z,75.24
2018-10-09T00:53:34.191Z,75.66
2018-10-09T00:56:09.163Z,76.38
2018-10-09T00:58:43.768Z,77.55
2018-10-09T01:01:18.408Z,77.83
2018-10-09T01:03:52.956Z,77.08
2018-10-09T01:06:27.355Z,77.96
2018-10-09T01:09:01.921Z,79.58
2018-10-09T01:11:36.928Z,79.93
2018-10-09T01:14:11.604Z,80.58
2018-10-09T01:16:46.360Z,80.39
2018-10-09T01:19:20.801Z,81.11
2018-10-09T01:21:55.356Z,80.01
2018-10-09T01:24:29.904Z,80.46
2018-10-09T01:27:04.362Z,79.75
2018-10-09T01:29:39.282Z,79.77
2018-10-09T01:32:13.915Z,78.94
2018-10-09T01:34:48.570Z,80.04
2018-10-09T01:37:23.346Z,79.75
2018-10-09T01:39:57.834Z,81.02
2018-10-09T01:42:32.445Z,81.84
2018-10-09T01:45:07.313Z,81.80
2018-10-09T01:47:42.156Z,80.81
2018-10-09T01:50:16.746Z,80.22
2018-10-09T01:52:51.127Z,79.40
2018-10-09T01:55:26.047Z,77.96
2018-10-09T01:58:00.677Z,77.40
2018-10-09T02:00:35.274Z,76.93
2018-10-09T02:03:10.452Z,76.01
2018-10-09T02:05:45.428Z,75.27
2018-10-09T02:08:20.098Z,76.23
2018-10-09T02:10:54.942Z,77.03
2018-10-09T02:13:29.879Z,78.45
2018-10-09T02:16:04.684Z,79.18
2018-10-09T02:18:39.212Z,81.17
2018-10-09T02:21:13.799Z,82.26
2018-10-09T02:23:48.394Z,83.13
2018-10-09T02:26:22.879Z,83.29
2018-10-09T02:28:57.350Z,83.27
2018-10-09T02:31:31.891Z,83.43
2018-10-09T02:34:06.647Z,83.66
2018-10-09T02:36:41.508Z,84.21
2018-10-09T02:39:16.223Z,84.51
2018-10-09T02:41:50.985Z,85.10
2018-10-09T02:44:25.863Z,85.64
2018-10-09T02:47:00.473Z,85.33
2018-10-09T02:49:34.973Z,85.36
2018-10-09T02:52:09.410Z,85.56
2018-10-09T02:54:43.902Z,85.46
2018-10-09T02:57:18.385Z,85.08
2018-10-09T02:59:52.878Z,85.42
2018-10-09T03:02:27.714Z,84.88
2018-10-09T03:05:02.470Z,83.76
2018-10-09T03:07:37.011Z,82.29
2018-10-09T03:10:11.926Z,81.25
2018-10-09T03:12:46.368Z,80.41
2018-10-09T03:15:20.827Z,79.73
2018-10-09T03:18:16.077Z,79.76
2018-10-09T03:20:50.854Z,79.53
2018-10-09T03:23:25.612Z,79.99
2018-10-09T03:26:00.308Z,79.91
2018-10-09T03:28:35.234Z,80.18
2018-10-09T03:31:09.647Z,80.48
2018-10-09T03:33:44.284Z,80.85
2018-10-09T03:36:19.566Z,81.04
2018-10-09T03:38:54.134Z,80.91
2018-10-09T03:41:28.827Z,81.17
2018-10-09T03:44:03.357Z,81.34
2018-10-09T03:46:37.966Z,81.31
2018-10-09T03:49:12.627Z,81.56
2018-10-09T03:51:47.613Z,81.75
2018-10-09T03:54:22.249Z,82.61
2018-10-09T03:56:56.913Z,82.57
2018-10-09T03:59:31.958Z,83.69
2018-10-09T04:02:06.426Z,83.76
2018-10-09T04:04:41.071Z,83.81
2018-10-09T04:07:15.805Z,84.10
2018-10-09T04:09:50.335Z,84.41
2018-10-09T04:12:24.886Z,84.12
2018-10-09T04:14:59.421Z,84.76
2018-10-09T04:17:34.037Z,85.04
2018-10-09T04:20:08.936Z,85.38
2018-10-09T04:22:43.416Z,85.07
2018-10-09T04:25:18.119Z,84.80
2018-10-09T04:27:52.667Z,84.14
2018-10-09T04:30:27.294Z,84.18
2018-10-09T04:33:02.167Z,84.54
2018-10-09T04:35:36.954Z,84.75
2018-10-09T04:38:11.363Z,84.69
2018-10-09T04:40:45.870Z,85.17
2018-10-09T04:43:20.880Z,85.52
2018-10-09T04:45:55.325Z,85.78
2018-10-09T04:48:30.030Z,86.11
2018-10-09T04:51:04.704Z,85.83
2018-10-09T04:53:39.803Z,85.89
2018-10-09T04:56:14.916Z,86.05
2018-10-09T04:58:49.408Z,86.82
2018-10-09T05:01:23.993Z,86.13
2018-10-09T05:03:58.904Z,86.19
2018-10-09T05:06:33.794Z,86.48
2018-10-09T05:09:10.170Z,86.03
2018-10-09T05:11:46.984Z,85.62
2018-10-09T05:14:21.960Z,85.69
2018-10-09T05:16:56.525Z,85.80
2018-10-09T05:19:31.714Z,85.77
2018-10-09T05:22:06.308Z,85.82
2018-10-09T05:24:40.966Z,85.89
2018-10-09T05:27:15.512Z,86.01
2018-10-09T05:29:50.643Z,87.28
2018-10-09T05:32:25.488Z,86.51
2018-10-09T05:35:00.087Z,87.87
2018-10-09T05:37:34.833Z,88.11
2018-10-09T05:40:09.364Z,87.42
2018-10-09T05:42:43.961Z,86.61
2018-10-09T05:45:18.626Z,86.16
2018-10-09T05:47:53.138Z,85.81
2018-10-09T05:50:27.710Z,85.82
2018-10-09T05:53:02.334Z,85.62
2018-10-09T05:55:37.684Z,85.34
2018-10-09T05:58:12.302Z,84.90
2018-10-09T06:00:47.268Z,85.08
2018-10-09T06:03:21.816Z,85.16
2018-10-09T06:05:56.699Z,85.22
2018-10-09T06:08:31.423Z,85.36
2018-10-09T06:11:06.050Z,84.57
2018-10-09T06:13:41.084Z,84.34
2018-10-09T06:16:15.845Z,83.41
2018-10-09T06:18:50.506Z,83.14
2018-10-09T06:21:25.380Z,82.93
2018-10-09T06:24:00.152Z,82.71
2018-10-09T06:26:35.027Z,82.54
2018-10-09T06:29:09.617Z,82.31
2018-10-09T06:31:44.131Z,81.65
2018-10-09T06:34:18.762Z,81.52
2018-10-09T06:36:53.461Z,81.16
2018-10-09T06:42:34.058Z,80.10
2018-10-09T06:45:08.531Z,79.13
2018-10-09T06:47:43.286Z,78.67
2018-10-09T06:50:17.763Z,78.53
2018-10-09T06:52:52.389Z,77.91
2018-10-09T06:55:26.923Z,77.68
2018-10-09T06:58:01.483Z,77.30
2018-10-09T07:00:36.089Z,76.61
2018-10-09T07:03:11.590Z,75.94
2018-10-09T07:05:46.133Z,72.94
2018-10-09T07:08:20.633Z,69.56
2018-10-09T07:10:55.431Z,64.73
2018-10-09T07:13:29.864Z,62.38
2018-10-09T07:16:04.562Z,62.44
2018-10-09T07:18:39.465Z,62.20
2018-10-09T07:21:13.910Z,63.81
2018-10-09T07:23:48.495Z,65.53
2018-10-09T07:26:23.386Z,67.83
2018-10-09T07:28:57.895Z,68.79
2018-10-09T07:31:32.641Z,68.49
2018-10-09T07:34:07.670Z,67.30
2018-10-09T07:36:42.434Z,64.58
2018-10-09T07:39:16.964Z,63.27
2018-10-09T07:41:51.600Z,63.28
2018-10-09T07:44:26.130Z,63.21
2018-10-09T07:47:00.651Z,65.04
2018-10-09T07:49:35.688Z,65.17
2018-10-09T07:52:10.148Z,65.22
2018-10-09T07:54:44.986Z,65.56
2018-10-09T07:57:19.639Z,67.50
2018-10-09T07:59:54.321Z,68.41
2018-10-09T08:02:28.984Z,69.96
2018-10-09T08:05:03.629Z,70.56
2018-10-09T08:07:38.598Z,70.97
2018-10-09T08:10:13.100Z,72.16
2018-10-09T08:12:47.689Z,73.26
2018-10-09T08:15:22.208Z,74.03
2018-10-09T08:17:57.006Z,73.23
2018-10-09T08:20:31.708Z,72.86
2018-10-09T08:23:06.537Z,72.70
2018-10-09T08:25:41.123Z,70.93
2018-10-09T08:28:15.718Z,68.42
2018-10-09T08:30:50.308Z,67.41
2018-10-09T08:33:25.016Z,68.06
2018-10-09T08:35:59.474Z,67.24
2018-10-09T08:38:34.088Z,67.33
2018-10-09T08:41:08.641Z,68.68
2018-10-09T08:43:43.430Z,67.30
2018-10-09T08:46:18.056Z,66.90
2018-10-09T08:48:52.635Z,68.41
2018-10-09T08:51:27.172Z,68.82
2018-10-09T08:54:01.600Z,69.56
2018-10-09T08:56:36.186Z,71.36
2018-10-09T08:59:10.821Z,71.63
2018-10-09T09:01:45.364Z,69.10
2018-10-09T09:04:20.082Z,67.40
2018-10-09T09:06:54.760Z,67.86
2018-10-09T09:09:29.384Z,66.57
2018-10-09T09:12:03.924Z,64.80
2018-10-09T09:14:38.402Z,61.18
2018-10-09T09:17:12.919Z,57.78
2018-10-09T09:19:47.398Z,53.75
2018-10-09T09:22:23.448Z,51.11
2018-10-09T09:24:58.096Z,54.58
2018-10-09T09:27:32.840Z,56.96
2018-10-09T09:30:07.906Z,59.51
2018-10-09T09:32:42.305Z,59.72
2018-10-09T09:35:17.546Z,61.09
2018-10-09T09:37:52.528Z,63.12
2018-10-09T09:40:27.184Z,62.79
2018-10-09T09:43:01.705Z,63.39
2018-10-09T09:45:36.266Z,63.75
2018-10-09T09:48:10.930Z,62.62
2018-10-09T09:50:46.218Z,64.08
2018-10-09T09:53:20.875Z,62.35
2018-10-09T09:55:55.789Z,62.35
2018-10-09T09:58:30.452Z,63.38
2018-10-09T10:01:09.886Z,63.49
2018-10-09T10:03:48.147Z,61.21
2018-10-09T10:06:23.770Z,59.49
2018-10-09T10:08:58.396Z,57.99
2018-10-09T10:11:33.156Z,58.56
2018-10-09T10:14:08.203Z,58.78
2018-10-09T10:16:43.515Z,59.76
2018-10-09T10:19:18.181Z,57.95
2018-10-09T10:21:53.030Z,57.79
2018-10-09T10:24:27.549Z,56.55
2018-10-09T10:27:02.563Z,58.72
2018-10-09T10:29:37.033Z,56.54
2018-10-09T10:32:11.352Z,56.64
2018-10-09T10:34:45.816Z,57.02
2018-10-09T10:37:20.624Z,56.38
2018-10-09T10:39:55.476Z,57.36
2018-10-09T10:42:29.865Z,57.89
2018-10-09T10:45:04.441Z,59.00
2018-10-09T10:50:42.200Z,58.75
2018-10-09T10:53:16.652Z,58.08
2018-10-09T10:55:52.030Z,58.18
2018-10-09T10:58:26.649Z,57.60
2018-10-09T11:01:01.265Z,56.36
2018-10-09T11:03:35.845Z,58.82
2018-10-09T11:06:10.692Z,57.61
2018-10-09T11:08:45.141Z,59.40
2018-10-09T11:11:20.324Z,57.93
2018-10-09T11:13:54.844Z,57.91
2018-10-09T11:16:29.442Z,57.80
2018-10-09T11:19:03.884Z,58.96
2018-10-09T11:21:38.355Z,58.29
2018-10-09T11:24:13.309Z,58.88
2018-10-09T11:26:48.103Z,57.20
2018-10-09T11:29:27.363Z,58.53
2018-10-09T11:32:02.385Z,58.15
2018-10-09T11:34:37.884Z,56.40
2018-10-09T11:37:12.389Z,57.16
2018-10-09T11:39:46.957Z,57.88
2018-10-09T11:42:21.604Z,59.03
2018-10-09T11:44:56.074Z,56.60
2018-10-09T11:47:30.733Z,55.20
2018-10-09T11:50:05.901Z,57.05
2018-10-09T11:52:40.519Z,58.13
2018-10-09T11:55:15.354Z,57.24
2018-10-09T11:57:50.292Z,57.31
2018-10-09T12:00:24.966Z,55.58
2018-10-09T12:02:59.596Z,57.08
2018-10-09T12:05:34.112Z,57.42
2018-10-09T12:08:08.556Z,57.46
2018-10-09T12:10:43.306Z,57.27
2018-10-09T12:13:17.935Z,56.65
2018-10-09T12:15:52.613Z,55.84
2018-10-09T12:18:37.282Z,55.58
2018-10-09T12:21:11.861Z,55.82
2018-10-09T12:23:46.481Z,55.86
2018-10-09T12:26:21.150Z,55.79
2018-10-09T12:28:55.701Z,54.96
2018-10-09T12:31:30.594Z,54.20
2018-10-09T12:34:05.464Z,54.99
2018-10-09T12:36:40.150Z,54.51
2018-10-09T12:39:14.973Z,54.95
2018-10-09T12:41:49.616Z,55.23
2018-10-09T12:44:24.152Z,54.99
2018-10-09T12:46:59.281Z,54.84
2018-10-09T12:49:34.301Z,55.25
2018-10-09T12:52:09.032Z,53.80
2018-10-09T12:54:43.945Z,55.13
2018-10-09T12:57:18.827Z,54.87
2018-10-09T12:59:53.509Z,55.22
2018-10-09T13:02:28.264Z,54.36
2018-10-09T13:05:02.993Z,55.11
2018-10-09T13:07:37.629Z,54.85
2018-10-09T13:10:12.533Z,53.43
2018-10-09T13:12:47.094Z,54.14
2018-10-09T13:15:21.844Z,53.55
2018-10-09T13:17:56.497Z,51.82
2018-10-09T13:20:31.102Z,51.67
2018-10-09T13:23:05.626Z,52.02
2018-10-09T13:28:50.956Z,51.72
2018-10-09T13:31:25.670Z,51.51
2018-10-09T13:34:00.764Z,50.66
2018-10-09T13:36:35.228Z,51.83
2018-10-09T13:39:09.732Z,51.34
2018-10-09T13:41:44.461Z,49.55
2018-10-09T13:44:19.097Z,50.82
2018-10-09T13:46:55.049Z,51.85
2018-10-09T13:49:29.960Z,50.65
2018-10-09T13:52:04.529Z,50.67
2018-10-09T13:54:39.182Z,51.53
2018-10-09T13:57:13.863Z,51.65
2018-10-09T13:59:48.513Z,52.46
2018-10-09T14:02:22.874Z,52.32
2018-10-09T14:04:57.307Z,53.14
2018-10-09T14:07:31.913Z,53.25
2018-10-09T14:10:06.858Z,52.96
2018-10-09T14:12:41.474Z,52.88
2018-10-09T14:15:15.998Z,53.73
2018-10-09T14:17:50.511Z,53.70
2018-10-09T14:20:25.007Z,52.99
2018-10-09T14:22:59.597Z,51.47
2018-10-09T14:25:34.183Z,52.03
2018-10-09T14:28:09.153Z,52.74
2018-10-09T14:30:43.761Z,52.07
2018-10-09T14:33:18.485Z,52.36
2018-10-09T14:35:52.896Z,52.00
2018-10-09T14:38:27.597Z,52.21
2018-10-09T14:41:02.115Z,52.50
2018-10-09T14:43:36.784Z,52.88
2018-10-09T14:46:11.569Z,51.81
2018-10-09T14:48:46.622Z,54.16
2018-10-09T14:51:21.188Z,53.96
2018-10-09T14:53:56.043Z,52.63
2018-10-09T14:56:30.622Z,54.91
2018-10-09T14:59:05.286Z,54.10
2018-10-09T15:01:39.854Z,52.85
2018-10-09T15:04:14.408Z,53.93
2018-10-09T15:06:49.225Z,56.29
2018-10-09T15:09:23.754Z,55.04
2018-10-09T15:11:58.688Z,55.57
2018-10-09T15:14:33.176Z,57.55
2018-10-09T15:17:07.792Z,57.98
2018-10-09T15:19:42.229Z,56.76
2018-10-09T15:22:16.739Z,56.31
2018-10-09T15:24:51.621Z,55.81
2018-10-09T15:27:26.105Z,56.44
2018-10-09T15:33:03.207Z,59.40
2018-10-09T15:35:37.608Z,60.38
2018-10-09T15:38:19.157Z,61.47
2018-10-09T15:40:53.784Z,61.84
2018-10-09T15:43:28.495Z,62.05
2018-10-09T15:46:03.016Z,63.29
2018-10-09T15:48:37.532Z,63.21
2018-10-09T15:51:12.040Z,64.27
2018-10-09T15:53:46.579Z,64.62
2018-10-09T15:56:21.353Z,65.15
2018-10-09T15:58:56.025Z,66.30
2018-10-09T16:01:30.532Z,64.57
2018-10-09T16:04:05.105Z,64.77
2018-10-09T16:06:39.825Z,65.88
2018-10-09T16:09:14.519Z,65.45
2018-10-09T16:11:49.169Z,65.12
2018-10-09T16:14:23.896Z,65.07
2018-10-09T16:16:59.060Z,65.66
2018-10-09T16:19:33.576Z,65.65
2018-10-09T16:22:08.183Z,65.10
2018-10-09T16:24:43.044Z,66.30
2018-10-09T16:27:17.727Z,65.20
2018-10-09T16:29:52.429Z,66.28
2018-10-09T16:32:27.102Z,66.25
2018-10-09T16:35:01.610Z,65.94
2018-10-09T16:37:36.368Z,65.51
2018-10-09T16:40:10.972Z,66.42
2018-10-09T16:42:45.448Z,66.87
2018-10-09T16:45:22.468Z,67.65
2018-10-09T16:47:57.049Z,68.38
2018-10-09T16:50:31.571Z,68.92
2018-10-09T16:53:06.055Z,70.01
2018-10-09T16:55:56.394Z,71.72
2018-10-09T16:58:30.931Z,72.17
2018-10-09T17:01:05.460Z,72.60
2018-10-09T17:03:40.458Z,72.54
2018-10-09T17:06:19.835Z,73.50
2018-10-09T17:08:54.769Z,73.80
2018-10-09T17:11:29.381Z,74.54
2018-10-09T17:14:03.936Z,74.59
2018-10-09T17:16:38.598Z,74.74
2018-10-09T17:19:13.107Z,75.69
2018-10-09T17:21:47.638Z,76.27
2018-10-09T17:24:22.205Z,76.64
2018-10-09T17:26:57.075Z,77.09
2018-10-09T17:29:31.825Z,76.63
2018-10-09T17:32:06.591Z,76.69
2018-10-09T17:34:41.261Z,77.21
2018-10-09T17:37:15.900Z,77.06
2018-10-09T17:39:50.657Z,78.12
2018-10-09T17:42:25.687Z,78.43
2018-10-09T17:45:00.606Z,78.81
2018-10-09T17:47:35.194Z,78.16
2018-10-09T17:50:09.845Z,78.29
2018-10-09T17:52:44.651Z,78.76
2018-10-09T17:55:19.581Z,79.49
2018-10-09T17:57:54.320Z,79.44
2018-10-09T18:00:28.908Z,79.53
2018-10-09T18:03:03.656Z,79.62
2018-10-09T18:05:38.297Z,79.77
2018-10-09T18:08:13.941Z,79.53
2018-10-09T18:10:48.498Z,78.41
2018-10-09T18:13:23.049Z,79.11
2018-10-09T18:15:57.885Z,78.16
2018-10-09T18:18:32.630Z,77.48
2018-10-09T18:21:07.140Z,78.14
2018-10-09T18:23:41.765Z,77.86
2018-10-09T18:26:16.353Z,76.71
2018-10-09T18:28:51.010Z,76.02
2018-10-09T18:31:25.883Z,76.16
2018-10-09T18:34:00.268Z,76.19
2018-10-09T18:36:35.084Z,75.82
2018-10-09T18:39:11.841Z,76.46
2018-10-09T18:41:46.985Z,75.42
2018-10-09T18:44:21.461Z,75.33
2018-10-09T18:46:56.073Z,75.11
2018-10-09T18:49:30.659Z,75.48
2018-10-09T18:52:05.390Z,75.10
2018-10-09T18:54:40.021Z,74.84
2018-10-09T18:57:14.617Z,75.56
2018-10-09T18:59:49.249Z,75.83
2018-10-09T19:02:23.770Z,76.09
2018-10-09T19:04:58.271Z,76.04
2018-10-09T19:07:32.888Z,76.14
2018-10-09T19:10:07.698Z,76.47
2018-10-09T19:12:42.251Z,76.38
2018-10-09T19:15:16.922Z,76.59
2018-10-09T19:17:51.437Z,76.56
2018-10-09T19:20:25.975Z,76.88
2018-10-09T19:23:00.505Z,76.40
2018-10-09T19:25:35.184Z,76.72
2018-10-09T19:28:09.814Z,77.46
2018-10-09T19:30:44.453Z,78.02
2018-10-09T19:33:19.457Z,78.58
2018-10-09T19:35:54.225Z,78.95
2018-10-09T19:38:29.145Z,79.10
2018-10-09T19:41:03.662Z,78.44
2018-10-09T19:43:38.276Z,78.65
2018-10-09T19:46:13.036Z,77.86
2018-10-09T19:48:48.151Z,77.65
2018-10-09T19:51:22.951Z,77.96
2018-10-09T19:53:57.653Z,77.05
2018-10-09T19:56:32.699Z,76.37
2018-10-09T19:59:07.505Z,75.45
2018-10-09T20:01:42.005Z,75.28
2018-10-09T20:04:16.673Z,74.99
2018-10-09T20:06:51.289Z,75.29
2018-10-09T20:09:26.008Z,76.33
2018-10-09T20:12:00.745Z,76.55
2018-10-09T20:14:35.342Z,76.48
2018-10-09T20:17:09.993Z,75.91
2018-10-09T20:19:44.486Z,75.58
2018-10-09T20:22:19.062Z,75.44
2018-10-09T20:24:54.096Z,75.50
2018-10-09T20:27:28.645Z,75.50
2018-10-09T20:30:03.426Z,75.67
2018-10-09T20:32:38.112Z,75.97
2018-10-09T20:35:13.096Z,75.82
2018-10-09T20:37:47.540Z,75.84
2018-10-09T20:40:22.065Z,76.05
2018-10-09T20:42:56.752Z,76.29
2018-10-09T20:45:31.548Z,76.76
2018-10-09T20:48:06.580Z,76.99
2018-10-09T20:50:40.997Z,77.21
2018-10-09T20:53:15.930Z,77.25
2018-10-09T20:55:50.384Z,77.69
2018-10-09T20:58:24.897Z,77.40
2018-10-09T21:00:59.878Z,77.82
2018-10-09T21:03:34.574Z,76.92
2018-10-09T21:06:09.240Z,77.90
2018-10-09T21:08:43.936Z,78.67
2018-10-09T21:11:18.584Z,78.41
2018-10-09T21:13:53.143Z,78.47
2018-10-09T21:16:27.712Z,78.40
2018-10-09T21:19:02.260Z,79.23
2018-10-09T21:21:36.729Z,78.64
2018-10-09T21:24:11.213Z,78.96
2018-10-09T21:26:45.824Z,79.70
2018-10-09T21:29:20.600Z,79.56
2018-10-09T21:31:55.255Z,79.80
2018-10-09T21:34:29.970Z,80.63
2018-10-09T21:37:04.780Z,80.99
2018-10-09T21:39:39.413Z,81.27
2018-10-09T21:42:14.020Z,81.54
2018-10-09T21:44:48.604Z,82.08
2018-10-09T21:47:23.292Z,81.76
2018-10-09T21:49:57.958Z,81.32
2018-10-09T21:52:32.579Z,81.10
2018-10-09T21:55:07.176Z,81.16
2018-10-09T21:57:41.856Z,81.65
2018-10-09T22:00:16.769Z,81.73
2018-10-09T22:02:51.332Z,81.36
2018-10-09T22:05:25.949Z,81.49
2018-10-09T22:08:00.672Z,81.89
2018-10-09T22:10:35.380Z,82.21
2018-10-09T22:13:09.926Z,81.99
2018-10-09T22:15:44.648Z,82.43
2018-10-09T22:18:19.088Z,82.41
2018-10-09T22:20:53.765Z,82.93
2018-10-09T22:23:29.036Z,82.84
2018-10-09T22:26:03.498Z,82.89
2018-10-09T22:28:38.360Z,83.54
2018-10-09T22:31:13.254Z,82.65
2018-10-09T22:33:47.865Z,83.17
2018-10-09T22:36:22.341Z,82.95
2018-10-09T22:38:57.158Z,81.95
2018-10-09T22:41:31.693Z,82.86
2018-10-09T22:44:06.354Z,82.50
2018-10-09T22:46:40.990Z,82.79
2018-10-09T22:49:16.064Z,82.28
2018-10-09T22:51:50.476Z,83.34
2018-10-09T22:54:25.442Z,83.71
2018-10-09T22:56:59.985Z,83.57
2018-10-09T22:59:34.648Z,83.75
2018-10-09T23:02:09.235Z,83.90
2018-10-09T23:04:43.927Z,84.14
2018-10-09T23:07:18.585Z,83.85
2018-10-09T23:09:53.021Z,83.75
2018-10-09T23:12:27.908Z,83.54
2018-10-09T23:15:02.475Z,84.42
2018-10-09T23:17:37.144Z,84.64
2018-10-09T23:20:11.664Z,86.22
2018-10-09T23:22:46.317Z,85.64
2018-10-09T23:25:20.980Z,85.62
2018-10-09T23:27:55.553Z,85.32
2018-10-09T23:30:30.206Z,85.97
2018-10-09T23:33:05.064Z,86.27
2018-10-09T23:35:39.518Z,87.32
2018-10-09T23:38:14.078Z,87.73
2018-10-09T23:40:48.937Z,87.20
2018-10-09T23:43:23.905Z,86.03
2018-10-09T23:45:58.440Z,86.72
2018-10-09T23:48:32.923Z,86.27
2018-10-09T23:51:07.532Z,86.18
2018-10-09T23:53:42.170Z,85.64
2018-10-09T23:56:23.782Z,85.56
2018-10-09T23:58:59.766Z,85.32
